Time;durP1;ratioP1;P1;durP2;ratioP2;P2;SDS_P1;SDS_P2;PMS_P1;PMS_P2;Temp;Humidity;BMP_temperature;BMP_pressure;BME280_temperature;BME280_humidity;BME280_pressure;Samples;Min_cycle;Max_cycle;Signal;HPM_P1;HPM_P2
2023/03/19 00:01:56;;;;;;;36.00;15.50;;;;;;;7.22;46.59;99150.42;108038;1307;22240;-43
2023/03/19 00:04:23;;;;;;;34.10;15.70;;;;;;;7.21;47.40;99150.44;108019;1307;22946;-42
2023/03/19 00:06:49;;;;;;;37.20;15.60;;;;;;;7.19;47.09;99151.27;108054;1307;22246;-42
2023/03/19 00:09:14;;;;;;;33.30;15.70;;;;;;;7.18;47.58;99150.93;108032;1307;22389;-42
2023/03/19 00:11:40;;;;;;;33.20;15.70;;;;;;;7.17;47.63;99148.56;108048;1307;22499;-43
2023/03/19 00:14:05;;;;;;;34.70;15.60;;;;;;;7.16;48.12;99150.02;108028;1307;22240;-43
2023/03/19 00:16:30;;;;;;;44.10;17.30;;;;;;;7.13;48.18;99155.34;108030;1307;22335;-42
2023/03/19 00:18:56;;;;;;;33.40;15.60;;;;;;;7.08;47.31;99156.26;108034;1307;22399;-42
2023/03/19 00:21:21;;;;;;;38.40;15.90;;;;;;;7.04;47.38;99157.64;108023;1307;22230;-42
2023/03/19 00:23:47;;;;;;;33.00;15.50;;;;;;;7.04;47.84;99158.89;108035;1307;23068;-43
2023/03/19 00:26:12;;;;;;;31.20;15.70;;;;;;;7.02;48.30;99159.66;108059;1307;22373;-43
2023/03/19 00:28:37;;;;;;;40.30;16.50;;;;;;;6.99;47.68;99160.66;108024;1307;23206;-42
2023/03/19 00:31:12;;;;;;;37.30;17.30;;;;;;;6.95;47.87;99160.12;108025;1307;23221;-43
2023/03/19 00:33:39;;;;;;;30.20;15.80;;;;;;;6.94;47.71;99163.48;108038;1307;22837;-43
2023/03/19 00:36:05;;;;;;;36.10;17.10;;;;;;;6.90;47.81;99169.38;108018;1307;22217;-43
2023/03/19 00:38:31;;;;;;;33.00;15.70;;;;;;;6.89;48.20;99167.52;108026;1307;22242;-42
2023/03/19 00:40:57;;;;;;;32.90;16.10;;;;;;;6.87;48.01;99169.54;108038;1307;22448;-42
2023/03/19 00:43:23;;;;;;;36.00;16.30;;;;;;;6.84;48.65;99166.86;108007;1307;22986;-43
2023/03/19 00:45:49;;;;;;;35.80;15.80;;;;;;;6.81;48.59;99165.23;108061;1307;22251;-43
2023/03/19 00:48:14;;;;;;;37.40;16.70;;;;;;;6.77;48.17;99166.80;108027;1307;22249;-43
2023/03/19 00:50:40;;;;;;;31.40;15.70;;;;;;;6.75;48.77;99164.46;108027;1307;23702;-43
2023/03/19 00:53:05;;;;;;;32.40;16.00;;;;;;;6.72;48.83;99167.18;108028;1307;22204;-43
2023/03/19 00:55:30;;;;;;;33.90;16.40;;;;;;;6.68;48.60;99165.59;108019;1307;22399;-50
2023/03/19 00:57:56;;;;;;;32.80;16.40;;;;;;;6.68;48.61;99165.41;108027;1307;22409;-42
2023/03/19 01:00:21;;;;;;;31.90;15.70;;;;;;;6.67;48.89;99161.64;108017;1307;22398;-43
2023/03/19 01:02:46;;;;;;;34.80;17.40;;;;;;;6.64;48.97;99159.83;108024;1307;22413;-42
2023/03/19 01:05:12;;;;;;;35.60;16.90;;;;;;;6.65;48.56;99157.02;108022;1307;22385;-43
2023/03/19 01:07:37;;;;;;;35.00;17.90;;;;;;;6.64;48.38;99161.06;108029;1307;22372;-43
2023/03/19 01:10:03;;;;;;;45.10;18.70;;;;;;;6.60;48.92;99157.57;108013;1307;22391;-42
2023/03/19 01:12:28;;;;;;;38.20;17.20;;;;;;;6.58;49.26;99153.81;108027;1307;22866;-43
2023/03/19 01:14:54;;;;;;;33.90;17.90;;;;;;;6.57;48.69;99150.56;108021;1307;22344;-42
2023/03/19 01:17:20;;;;;;;35.30;17.60;;;;;;;6.53;48.80;99143.92;108030;1307;22221;-42
2023/03/19 01:19:45;;;;;;;40.70;17.90;;;;;;;6.50;48.81;99145.78;108028;1307;22399;-42
2023/03/19 01:22:11;;;;;;;33.10;17.40;;;;;;;6.47;49.25;99144.69;108012;1307;23164;-43
2023/03/19 01:24:37;;;;;;;37.10;17.30;;;;;;;6.42;49.44;99145.23;108040;1307;22435;-42
2023/03/19 01:27:02;;;;;;;43.50;17.70;;;;;;;6.43;48.98;99148.02;108022;1307;22231;-43
2023/03/19 01:29:28;;;;;;;35.40;17.00;;;;;;;6.41;49.17;99151.04;108027;1307;22244;-42
2023/03/19 01:31:53;;;;;;;41.60;17.70;;;;;;;6.37;49.14;99156.59;108026;1307;22258;-43
2023/03/19 01:34:18;;;;;;;34.70;17.10;;;;;;;6.34;49.78;99160.18;107996;1307;22403;-48
2023/03/19 01:36:43;;;;;;;36.40;17.20;;;;;;;6.34;49.84;99158.42;108029;1307;22404;-43
2023/03/19 01:39:10;;;;;;;38.40;18.10;;;;;;;6.33;49.74;99160.73;108011;1307;22564;-42
2023/03/19 01:41:36;;;;;;;39.60;17.50;;;;;;;6.29;49.60;99160.38;108016;1307;22505;-43
2023/03/19 01:44:01;;;;;;;44.40;17.80;;;;;;;6.27;49.75;99158.70;108021;1307;22357;-43
2023/03/19 01:46:31;;;;;;;36.90;18.00;;;;;;;6.26;49.82;99156.34;108033;1307;22466;-43
2023/03/19 01:48:59;;;;;;;34.30;17.50;;;;;;;6.23;50.43;99156.98;108002;1307;22235;-43
2023/03/19 01:51:28;;;;;;;37.90;17.60;;;;;;;6.21;49.99;99158.63;108001;1307;22404;-42
2023/03/19 01:53:59;;;;;;;46.10;17.90;;;;;;;6.18;50.40;99159.08;108026;1307;22255;-42
2023/03/19 01:56:31;;;;;;;36.50;17.90;;;;;;;6.17;50.26;99162.61;108026;1307;23011;-43
2023/03/19 01:59:02;;;;;;;34.00;17.20;;;;;;;6.13;50.41;99163.11;108029;1307;22245;-43
2023/03/19 02:01:33;;;;;;;39.90;17.10;;;;;;;6.11;49.96;99161.43;108021;1307;23156;-43
2023/03/19 02:03:58;;;;;;;39.10;17.10;;;;;;;6.11;50.64;99160.74;108029;1307;22220;-43
2023/03/19 02:06:24;;;;;;;37.30;17.20;;;;;;;6.11;50.17;99161.09;108012;1307;22819;-42
2023/03/19 02:08:51;;;;;;;39.70;17.10;;;;;;;6.07;50.54;99163.52;108011;1307;22428;-42
2023/03/19 02:11:18;;;;;;;39.20;16.20;;;;;;;6.03;50.22;99164.88;108040;1307;22271;-43
2023/03/19 02:13:43;;;;;;;31.90;16.30;;;;;;;6.01;50.08;99164.43;108029;1307;23039;-42
2023/03/19 02:16:10;;;;;;;35.20;16.80;;;;;;;5.96;50.27;99164.98;108016;1307;22231;-42
2023/03/19 02:18:35;;;;;;;38.90;17.60;;;;;;;5.94;50.45;99164.70;108016;1307;22262;-42
2023/03/19 02:21:04;;;;;;;38.10;16.80;;;;;;;5.90;50.46;99164.30;108006;1307;22582;-42
2023/03/19 02:23:57;;;;;;;33.70;16.00;;;;;;;5.90;50.14;99156.66;108025;1307;22229;-42
2023/03/19 02:26:27;;;;;;;35.10;17.10;;;;;;;5.86;50.24;99154.91;108026;1307;22400;-42
2023/03/19 02:28:52;;;;;;;33.70;16.20;;;;;;;5.83;50.38;99156.56;108022;1307;22264;-41
2023/03/19 02:31:19;;;;;;;32.60;16.40;;;;;;;5.85;50.18;99159.30;108027;1307;22482;-43
2023/03/19 02:33:56;;;;;;;33.30;15.70;;;;;;;5.85;50.64;99158.23;108044;1307;22361;-43
2023/03/19 02:36:22;;;;;;;31.90;16.20;;;;;;;5.81;50.22;99161.17;108016;1289;22236;-43
2023/03/19 02:38:47;;;;;;;35.70;16.80;;;;;;;5.78;50.29;99160.24;108020;1307;22250;-43
2023/03/19 02:44:02;;;;;;;32.40;15.50;;;;;;;5.85;50.20;99165.73;107609;1299;556632;-41
2023/03/19 02:46:27;;;;;;;31.40;15.80;;;;;;;5.81;50.46;99165.17;107849;1308;22246;-42
2023/03/19 02:48:53;;;;;;;30.70;15.40;;;;;;;5.81;50.08;99160.65;107846;1308;23216;-42
2023/03/19 02:51:18;;;;;;;29.10;15.40;;;;;;;5.79;50.25;99156.20;107858;1308;22251;-45
2023/03/19 02:53:44;;;;;;;28.60;15.10;;;;;;;5.79;50.38;99156.21;107819;1308;23210;-42
2023/03/19 02:56:10;;;;;;;38.80;15.80;;;;;;;5.76;51.22;99157.52;107735;1305;148171;-42
2023/03/19 02:58:35;;;;;;;37.30;16.10;;;;;;;5.76;50.95;99158.58;108091;1306;22243;-42
2023/03/19 03:01:01;;;;;;;30.90;14.10;;;;;;;5.75;51.08;99155.80;108122;1306;22381;-42
2023/03/19 03:03:26;;;;;;;32.60;14.90;;;;;;;5.75;51.24;99158.27;108094;1306;22506;-43
2023/03/19 03:05:51;;;;;;;33.20;14.70;;;;;;;5.72;51.01;99156.80;108107;1306;22325;-43
2023/03/19 03:08:17;;;;;;;36.00;15.50;;;;;;;5.70;50.76;99158.27;108090;1306;22345;-42
2023/03/19 03:10:42;;;;;;;32.80;15.00;;;;;;;5.69;51.33;99156.23;108086;1306;23238;-42
2023/03/19 03:13:08;;;;;;;38.70;15.40;;;;;;;5.67;51.81;99156.64;108106;1306;22249;-44
2023/03/19 03:15:33;;;;;;;35.00;15.60;;;;;;;5.67;51.85;99155.61;108083;1306;22468;-43
2023/03/19 03:17:58;;;;;;;36.80;16.30;;;;;;;5.64;51.48;99156.93;108076;1306;22877;-42
2023/03/19 03:20:24;;;;;;;35.90;16.20;;;;;;;5.63;52.17;99156.61;108107;1306;22285;-41
2023/03/19 03:22:49;;;;;;;34.60;15.00;;;;;;;5.61;51.78;99157.23;108094;1306;23027;-41
2023/03/19 03:25:14;;;;;;;35.10;15.20;;;;;;;5.58;52.26;99154.89;108124;1306;22260;-43
2023/03/19 03:27:40;;;;;;;31.70;15.40;;;;;;;5.58;51.56;99155.42;108105;1306;22246;-42
2023/03/19 03:30:07;;;;;;;31.30;15.80;;;;;;;5.55;51.73;99159.17;108093;1306;23287;-42
2023/03/19 03:32:34;;;;;;;30.70;16.20;;;;;;;5.55;52.27;99160.41;108115;1306;22439;-42
2023/03/19 03:34:59;;;;;;;32.10;15.60;;;;;;;5.52;53.02;99162.25;108105;1306;22449;-42
2023/03/19 03:37:25;;;;;;;35.50;15.80;;;;;;;5.49;52.11;99161.99;108116;1306;23970;-42
2023/03/19 03:39:52;;;;;;;33.90;16.60;;;;;;;5.47;52.45;99161.73;108109;1306;23125;-41
2023/03/19 03:42:17;;;;;;;37.20;16.80;;;;;;;5.45;52.42;99163.05;108081;1306;22380;-42
2023/03/19 03:44:42;;;;;;;35.80;17.20;;;;;;;5.40;52.69;99159.53;108101;1306;22623;-43
2023/03/19 03:47:08;;;;;;;39.80;18.00;;;;;;;5.40;52.63;99159.73;108103;1306;22313;-43
2023/03/19 03:49:33;;;;;;;35.10;17.50;;;;;;;5.34;52.65;99164.10;108082;1306;22954;-42
2023/03/19 03:51:59;;;;;;;38.00;17.80;;;;;;;5.32;53.55;99165.75;108109;1306;22435;-41
2023/03/19 03:54:24;;;;;;;40.80;19.30;;;;;;;5.30;53.64;99164.96;108055;1306;22258;-42
2023/03/19 03:56:50;;;;;;;35.10;17.20;;;;;;;5.25;53.06;99162.17;108069;1306;22422;-42
2023/03/19 03:59:15;;;;;;;37.90;17.30;;;;;;;5.22;52.83;99163.68;108050;1306;22396;-42
2023/03/19 04:01:41;;;;;;;32.60;16.40;;;;;;;5.22;52.76;99162.98;108069;1306;22241;-41
2023/03/19 04:04:07;;;;;;;44.40;17.20;;;;;;;5.22;52.93;99167.49;108053;1306;22282;-42
2023/03/19 04:06:33;;;;;;;30.70;16.80;;;;;;;5.22;53.18;99166.98;108060;1306;22300;-42
2023/03/19 04:08:59;;;;;;;31.90;16.20;;;;;;;5.22;52.88;99169.77;108052;1306;22265;-42
2023/03/19 04:11:25;;;;;;;40.30;16.10;;;;;;;5.21;52.96;99176.05;108066;1306;22675;-41
2023/03/19 04:13:51;;;;;;;33.40;16.70;;;;;;;5.18;53.42;99178.91;108060;1306;22254;-42
2023/03/19 04:16:16;;;;;;;33.30;16.50;;;;;;;5.15;52.91;99179.38;108073;1306;22993;-43
2023/03/19 04:18:41;;;;;;;32.40;16.10;;;;;;;5.13;52.57;99182.23;108069;1306;22325;-43
2023/03/19 04:21:07;;;;;;;31.10;16.00;;;;;;;5.13;52.88;99181.89;108076;1306;22440;-43
2023/03/19 04:23:33;;;;;;;40.60;16.20;;;;;;;5.10;53.25;99185.29;108068;1306;22397;-43
2023/03/19 04:26:00;;;;;;;38.10;16.10;;;;;;;5.09;52.91;99180.11;107886;1306;22604;-42
2023/03/19 04:28:26;;;;;;;32.30;15.20;;;;;;;5.08;52.80;99175.98;108079;1306;22544;-41
2023/03/19 04:30:51;;;;;;;31.30;15.90;;;;;;;5.05;53.32;99174.85;108063;1306;23036;-42
2023/03/19 04:33:17;;;;;;;34.90;16.00;;;;;;;5.05;53.78;99171.02;108057;1306;22422;-42
2023/03/19 04:35:42;;;;;;;38.40;15.50;;;;;;;5.05;53.31;99172.79;108071;1306;22528;-43
2023/03/19 04:38:08;;;;;;;34.50;15.90;;;;;;;5.04;53.30;99171.09;108062;1306;22312;-42
2023/03/19 04:40:34;;;;;;;40.90;15.90;;;;;;;5.05;53.26;99166.17;108043;1306;22374;-42
2023/03/19 04:43:00;;;;;;;31.30;15.50;;;;;;;5.03;53.33;99166.24;108063;1306;22300;-43
2023/03/19 04:45:25;;;;;;;34.90;15.40;;;;;;;5.03;53.14;99168.16;107166;1306;22466;-42
2023/03/19 04:47:51;;;;;;;30.10;15.90;;;;;;;5.04;53.78;99163.27;108065;1306;22245;-41
2023/03/19 04:50:16;;;;;;;33.80;15.50;;;;;;;5.02;53.49;99162.28;108048;1306;22320;-40
2023/03/19 04:52:42;;;;;;;30.60;15.90;;;;;;;5.01;54.08;99163.35;108064;1306;22214;-41
2023/03/19 04:55:08;;;;;;;29.80;14.70;;;;;;;5.02;54.30;99164.04;108065;1306;22441;-41
2023/03/19 04:57:34;;;;;;;31.30;15.20;;;;;;;5.00;54.05;99163.56;108076;1306;22253;-41
2023/03/19 04:59:59;;;;;;;31.00;15.10;;;;;;;5.02;54.09;99161.09;108072;1306;22434;-41
2023/03/19 05:02:25;;;;;;;39.50;15.00;;;;;;;5.04;54.35;99167.27;108040;1306;22350;-41
2023/03/19 05:04:51;;;;;;;29.60;14.50;;;;;;;5.06;54.41;99162.14;108049;1306;22508;-41
2023/03/19 05:07:16;;;;;;;30.00;15.00;;;;;;;5.09;53.86;99159.42;108046;1306;22223;-41
2023/03/19 05:09:42;;;;;;;32.10;15.30;;;;;;;5.12;54.41;99161.08;108052;1306;23301;-41
2023/03/19 05:12:08;;;;;;;37.80;14.80;;;;;;;5.14;54.48;99162.92;108065;1306;22427;-41
2023/03/19 05:14:34;;;;;;;27.00;13.80;;;;;;;5.16;54.00;99164.23;108043;1306;22892;-41
2023/03/19 05:16:59;;;;;;;32.90;14.90;;;;;;;5.19;53.53;99162.57;108056;1306;22283;-41
2023/03/19 05:19:25;;;;;;;32.50;16.30;;;;;;;5.16;53.69;99160.90;108042;1306;22206;-41
2023/03/19 05:21:50;;;;;;;34.50;17.10;;;;;;;5.19;54.06;99157.34;108046;1306;23185;-42
2023/03/19 05:24:15;;;;;;;35.90;15.50;;;;;;;5.20;53.87;99156.94;108071;1306;22228;-41
2023/03/19 05:26:41;;;;;;;27.90;14.80;;;;;;;5.23;53.82;99155.14;108074;1306;23367;-41
2023/03/19 05:29:09;;;;;;;28.30;15.40;;;;;;;5.27;54.01;99156.56;108055;1306;23207;-41
2023/03/19 05:31:35;;;;;;;36.00;14.90;;;;;;;5.31;54.13;99162.29;108055;1306;22389;-41
2023/03/19 05:34:01;;;;;;;30.70;13.90;;;;;;;5.35;54.78;99158.52;108095;1306;22426;-42
2023/03/19 05:36:27;;;;;;;29.90;14.90;;;;;;;5.40;55.30;99158.68;108059;1306;22737;-41
2023/03/19 05:38:52;;;;;;;30.20;14.40;;;;;;;5.43;55.31;99157.37;108058;1306;23268;-43
2023/03/19 05:41:17;;;;;;;31.20;15.40;;;;;;;5.47;54.18;99164.37;108054;1306;22420;-43
2023/03/19 05:43:43;;;;;;;32.10;15.40;;;;;;;5.50;53.90;99169.28;108059;1306;23333;-43
2023/03/19 05:46:08;;;;;;;39.20;15.30;;;;;;;5.52;53.79;99168.30;108045;1306;22260;-42
2023/03/19 05:48:33;;;;;;;28.70;14.80;;;;;;;5.55;53.75;99167.86;108042;1306;22990;-42
2023/03/19 05:50:59;;;;;;;30.10;15.50;;;;;;;5.59;53.73;99169.83;108066;1306;23045;-42
2023/03/19 05:53:24;;;;;;;27.60;14.00;;;;;;;5.62;53.66;99170.06;107840;1306;22416;-42
2023/03/19 05:55:51;;;;;;;39.30;19.20;;;;;;;5.63;54.00;99166.36;108037;1306;22301;-43
2023/03/19 05:58:16;;;;;;;31.10;16.10;;;;;;;5.65;54.43;99171.34;108076;1306;22212;-42
2023/03/19 06:00:41;;;;;;;39.00;17.60;;;;;;;5.71;54.02;99176.32;108041;1306;22258;-43
2023/03/19 06:03:07;;;;;;;31.80;15.80;;;;;;;5.74;54.13;99175.52;108056;1306;23219;-43
2023/03/19 06:05:32;;;;;;;29.80;15.30;;;;;;;5.75;54.18;99178.61;108049;1306;22504;-43
2023/03/19 06:07:57;;;;;;;38.50;15.40;;;;;;;5.81;54.46;99176.84;108057;1306;22239;-42
2023/03/19 06:10:23;;;;;;;32.80;14.70;;;;;;;5.85;53.98;99179.83;108046;1306;22400;-43
2023/03/19 06:12:48;;;;;;;33.00;14.30;;;;;;;5.89;53.82;99182.09;108045;1306;22253;-41
2023/03/19 06:15:13;;;;;;;32.30;14.00;;;;;;;5.92;53.95;99180.42;108049;1306;22262;-42
2023/03/19 06:17:39;;;;;;;28.50;14.80;;;;;;;6.00;53.59;99183.29;108050;1306;22254;-41
2023/03/19 06:20:04;;;;;;;29.00;14.30;;;;;;;6.00;53.58;99179.62;108037;1306;22433;-41
2023/03/19 06:22:30;;;;;;;26.40;14.60;;;;;;;6.07;53.44;99183.17;108025;1306;22248;-41
2023/03/19 06:24:55;;;;;;;30.50;14.90;;;;;;;6.11;53.60;99180.93;108040;1306;22324;-41
2023/03/19 06:27:20;;;;;;;26.80;14.50;;;;;;;6.17;53.60;99180.35;108045;1306;23095;-41
2023/03/19 06:29:46;;;;;;;25.00;14.60;;;;;;;6.22;53.85;99185.90;108065;1306;22445;-43
2023/03/19 06:32:11;;;;;;;29.40;13.60;;;;;;;6.26;54.07;99185.40;108068;1306;22406;-43
2023/03/19 06:34:37;;;;;;;27.10;13.70;;;;;;;6.32;53.71;99187.25;108051;1306;22259;-43
2023/03/19 06:37:02;;;;;;;29.30;14.20;;;;;;;6.43;53.82;99186.32;108069;1306;22255;-43
2023/03/19 06:39:27;;;;;;;30.60;14.20;;;;;;;6.51;54.06;99181.78;107989;1302;22960;-43
2023/03/19 06:41:53;;;;;;;27.70;13.70;;;;;;;6.60;54.03;99187.54;107908;1307;22665;-42
2023/03/19 06:44:18;;;;;;;29.70;13.60;;;;;;;6.67;53.71;99188.98;107893;1308;22460;-43
2023/03/19 06:46:43;;;;;;;26.30;13.00;;;;;;;6.75;53.46;99192.13;107928;1307;23004;-42
2023/03/19 06:49:09;;;;;;;22.30;13.30;;;;;;;6.83;53.11;99193.76;107922;1308;22263;-43
2023/03/19 06:51:34;;;;;;;27.10;13.60;;;;;;;6.91;53.16;99200.04;107908;1307;22361;-43
2023/03/19 06:54:00;;;;;;;28.40;13.70;;;;;;;7.01;52.90;99208.16;107896;1307;22221;-42
2023/03/19 06:56:26;;;;;;;25.10;12.80;;;;;;;7.08;53.05;99210.48;107916;1307;23805;-43
2023/03/19 06:58:51;;;;;;;30.00;13.70;;;;;;;7.17;52.94;99208.86;107925;1307;22227;-41
2023/03/19 07:01:17;;;;;;;28.30;13.20;;;;;;;7.26;52.78;99210.92;107930;1307;22234;-42
2023/03/19 07:03:42;;;;;;;25.70;13.50;;;;;;;7.34;52.68;99212.49;107906;1307;22448;-41
2023/03/19 07:06:08;;;;;;;23.80;13.60;;;;;;;7.43;52.73;99208.10;107926;1307;22244;-51
2023/03/19 07:08:33;;;;;;;24.10;11.80;;;;;;;7.54;52.57;99208.68;107928;1307;22884;-43
2023/03/19 07:11:06;;;;;;;26.30;12.40;;;;;;;7.63;51.90;99209.47;107928;1307;23079;-42
2023/03/19 07:13:32;;;;;;;27.30;12.40;;;;;;;7.71;51.87;99211.07;107929;1307;22369;-42
2023/03/19 07:15:58;;;;;;;25.50;12.50;;;;;;;7.75;51.87;99210.19;107919;1307;23228;-43
2023/03/19 07:18:24;;;;;;;22.40;12.40;;;;;;;7.81;52.02;99209.55;107941;1307;23073;-42
2023/03/19 07:20:49;;;;;;;23.70;11.30;;;;;;;7.89;52.07;99208.30;107946;1307;22244;-42
2023/03/19 07:23:14;;;;;;;23.50;11.70;;;;;;;7.95;51.64;99208.59;107918;1307;22474;-43
2023/03/19 07:25:40;;;;;;;28.90;12.80;;;;;;;7.98;51.56;99207.92;107899;1307;22330;-42
2023/03/19 07:28:05;;;;;;;23.60;11.70;;;;;;;8.01;51.50;99208.11;107887;1307;22399;-43
2023/03/19 07:30:31;;;;;;;21.30;11.80;;;;;;;8.01;51.45;99210.22;107942;1307;23118;-43
2023/03/19 07:32:57;;;;;;;23.40;12.30;;;;;;;8.05;51.49;99214.20;107959;1307;23053;-42
2023/03/19 07:35:22;;;;;;;19.90;11.40;;;;;;;8.13;51.23;99213.67;107940;1307;23105;-42
2023/03/19 07:37:47;;;;;;;24.30;11.90;;;;;;;8.18;51.42;99218.70;107947;1307;22309;-42
2023/03/19 07:40:13;;;;;;;27.10;12.50;;;;;;;8.26;51.53;99218.67;107954;1307;22395;-43
2023/03/19 07:42:39;;;;;;;24.20;11.70;;;;;;;8.36;51.37;99216.80;107943;1307;23083;-43
2023/03/19 07:45:05;;;;;;;23.80;11.90;;;;;;;8.45;51.01;99219.89;107949;1307;22249;-44
2023/03/19 07:47:31;;;;;;;25.80;11.80;;;;;;;8.53;50.71;99221.64;107936;1307;22247;-43
2023/03/19 07:49:56;;;;;;;26.70;12.60;;;;;;;8.61;50.80;99224.02;107944;1307;22570;-43
2023/03/19 07:52:23;;;;;;;23.70;12.00;;;;;;;8.71;50.82;99226.17;107943;1307;22337;-43
2023/03/19 07:54:49;;;;;;;21.70;11.20;;;;;;;8.80;50.47;99224.31;107946;1307;23127;-43
2023/03/19 07:57:15;;;;;;;25.30;12.40;;;;;;;8.89;50.35;99221.95;107941;1307;22873;-43
2023/03/19 07:59:40;;;;;;;20.80;11.70;;;;;;;8.96;49.99;99224.92;107944;1307;22328;-43
2023/03/19 08:02:08;;;;;;;24.30;12.70;;;;;;;8.97;49.70;99220.19;107945;1307;22221;-43
2023/03/19 08:04:34;;;;;;;22.70;11.50;;;;;;;9.06;49.52;99223.05;107937;1307;22912;-42
2023/03/19 08:06:59;;;;;;;21.90;12.30;;;;;;;9.17;49.34;99222.31;107926;1307;22258;-43
2023/03/19 08:09:25;;;;;;;24.20;12.50;;;;;;;9.34;49.23;99219.02;107928;1307;22418;-43
2023/03/19 08:11:50;;;;;;;23.50;12.20;;;;;;;9.54;49.19;99221.48;107935;1307;23870;-43
2023/03/19 08:14:21;;;;;;;29.20;11.80;;;;;;;9.75;49.20;99214.08;107943;1307;22234;-43
2023/03/19 08:16:46;;;;;;;22.00;11.40;;;;;;;9.94;48.52;99214.66;107546;1307;22292;-43
2023/03/19 08:19:12;;;;;;;21.70;11.60;;;;;;;10.07;48.25;99215.70;107937;1307;23108;-43
2023/03/19 08:21:37;;;;;;;19.90;10.40;;;;;;;10.22;47.77;99209.95;107974;1307;22506;-44
2023/03/19 08:24:03;;;;;;;22.50;11.50;;;;;;;10.36;47.93;99212.04;107961;1307;22449;-43
2023/03/19 08:26:28;;;;;;;23.50;12.20;;;;;;;10.44;47.71;99211.05;107942;1307;22229;-44
2023/03/19 08:28:54;;;;;;;23.30;11.70;;;;;;;10.50;47.36;99210.77;107946;1307;22240;-44
2023/03/19 08:31:19;;;;;;;19.90;11.10;;;;;;;10.58;47.47;99207.80;107935;1307;22205;-44
2023/03/19 08:33:45;;;;;;;17.60;10.10;;;;;;;10.67;46.92;99206.95;107957;1307;22230;-44
2023/03/19 08:36:13;;;;;;;17.40;10.20;;;;;;;10.75;46.11;99210.56;107943;1307;22590;-43
2023/03/19 08:38:40;;;;;;;16.80;9.60;;;;;;;10.87;45.39;99208.65;107955;1307;23276;-43
2023/03/19 08:41:05;;;;;;;21.40;10.00;;;;;;;11.11;44.74;99203.91;107954;1307;23182;-43
2023/03/19 08:43:33;;;;;;;17.00;9.60;;;;;;;11.38;44.26;99207.71;107943;1307;22815;-44
2023/03/19 08:46:00;;;;;;;16.20;9.60;;;;;;;11.67;43.94;99206.00;107950;1308;22243;-44
2023/03/19 08:48:26;;;;;;;15.50;9.30;;;;;;;11.87;43.27;99206.02;107940;1307;22351;-43
2023/03/19 08:50:56;;;;;;;14.70;9.00;;;;;;;12.04;42.69;99206.23;107957;1307;22426;-44
2023/03/19 08:53:22;;;;;;;17.60;9.80;;;;;;;12.18;42.07;99202.69;107947;1307;22404;-44
2023/03/19 08:55:57;;;;;;;21.80;9.70;;;;;;;12.28;42.11;99201.88;107916;1307;22333;-44
2023/03/19 08:58:23;;;;;;;14.30;8.70;;;;;;;12.38;41.91;99201.61;107935;1307;22995;-45
2023/03/19 09:00:49;;;;;;;16.30;9.30;;;;;;;12.49;41.96;99202.65;107938;1307;22208;-45
2023/03/19 09:03:16;;;;;;;16.40;9.30;;;;;;;12.66;42.22;99202.58;107931;1307;22237;-45
2023/03/19 09:05:42;;;;;;;16.20;9.70;;;;;;;12.76;41.09;99203.88;107940;1307;22571;-45
2023/03/19 09:08:08;;;;;;;14.20;8.90;;;;;;;12.79;40.80;99209.30;107908;1307;22290;-45
2023/03/19 09:10:33;;;;;;;23.30;13.50;;;;;;;13.03;41.20;99210.38;107906;1307;22256;-45
2023/03/19 09:12:59;;;;;;;17.30;9.70;;;;;;;13.18;40.09;99205.33;107913;1308;23004;-45
2023/03/19 09:15:25;;;;;;;18.40;9.60;;;;;;;13.37;39.84;99208.46;107906;1307;23076;-44
2023/03/19 09:17:51;;;;;;;15.70;9.30;;;;;;;13.67;39.60;99210.14;107907;1307;22425;-46
2023/03/19 09:20:16;;;;;;;16.00;9.20;;;;;;;13.93;39.11;99212.70;107915;1307;22266;-45
2023/03/19 09:22:42;;;;;;;13.30;8.80;;;;;;;14.17;39.02;99211.52;107920;1307;22305;-45
2023/03/19 09:25:07;;;;;;;15.00;8.70;;;;;;;14.47;37.65;99208.52;107909;1307;23044;-45
2023/03/19 09:27:33;;;;;;;13.70;8.90;;;;;;;14.90;37.58;99212.98;107889;1307;23087;-45
2023/03/19 09:29:58;;;;;;;21.90;11.30;;;;;;;15.40;37.12;99211.49;107915;1307;22211;-46
2023/03/19 09:32:24;;;;;;;20.90;8.70;;;;;;;15.84;36.02;99203.79;107915;1307;22247;-45
2023/03/19 09:34:49;;;;;;;14.90;9.40;;;;;;;15.98;35.73;99203.17;107889;1307;23269;-46
2023/03/19 09:37:14;;;;;;;14.90;8.10;;;;;;;15.77;35.29;99201.99;107924;1307;22226;-44
2023/03/19 09:39:40;;;;;;;13.30;9.20;;;;;;;15.58;35.38;99204.48;107904;1308;22489;-45
2023/03/19 09:42:39;;;;;;;15.10;9.00;;;;;;;15.39;35.42;99199.77;107911;1307;22427;-45
2023/03/19 09:45:12;;;;;;;16.70;8.40;;;;;;;15.17;36.14;99194.56;107923;1307;22378;-45
2023/03/19 09:47:38;;;;;;;12.80;8.30;;;;;;;15.10;36.80;99196.86;107921;1307;22468;-45
2023/03/19 09:50:16;;;;;;;12.10;7.80;;;;;;;15.02;36.44;99196.75;107915;1307;23047;-43
2023/03/19 09:52:46;;;;;;;14.50;8.00;;;;;;;14.74;36.40;99194.41;107918;1307;22264;-44
2023/03/19 09:55:43;;;;;;;12.40;8.20;;;;;;;14.56;37.08;99194.64;107922;1308;22247;-44
2023/03/19 09:58:30;;;;;;;;;;;;;;;14.45;37.25;99187.66;107175;1308;22468;-44
2023/03/19 10:00:55;;;;;;;;;;;;;;;14.29;37.26;99188.48;107222;1314;22502;-45
2023/03/19 10:03:30;;;;;;;12.60;8.20;;;;;;;14.25;37.43;99188.27;107142;1301;22314;-49
2023/03/19 10:06:07;;;;;;;15.10;8.70;;;;;;;14.15;37.50;99182.96;107207;1307;22279;-44
2023/03/19 10:08:52;;;;;;;13.60;8.30;;;;;;;14.08;37.73;99190.83;107181;1314;22427;-44
2023/03/19 10:11:38;;;;;;;13.40;8.50;;;;;;;14.14;37.69;99194.10;107195;1308;22267;-44
2023/03/19 10:14:41;;;;;;;16.10;8.50;;;;;;;14.12;36.85;99191.83;107206;1314;22312;-45
2023/03/19 10:17:15;;;;;;;12.60;7.80;;;;;;;14.19;37.07;99187.94;107205;1314;22286;-44
2023/03/19 10:19:50;;;;;;;13.10;8.10;;;;;;;14.23;37.48;99186.10;107224;1314;22303;-44
2023/03/19 10:22:20;;;;;;;13.80;8.30;;;;;;;14.29;37.24;99188.50;107194;1314;22314;-44
2023/03/19 10:24:49;;;;;;;15.80;8.90;;;;;;;14.42;37.38;99193.33;107212;1314;22295;-44
2023/03/19 10:27:20;;;;;;;18.60;9.00;;;;;;;14.54;37.47;99191.60;107232;1314;22244;-44
2023/03/19 10:29:46;;;;;;;14.70;8.50;;;;;;;14.60;37.62;99189.05;107216;1314;22277;-44
2023/03/19 10:32:11;;;;;;;13.20;8.20;;;;;;;14.65;37.58;99186.42;107204;1314;22221;-44
2023/03/19 10:34:41;;;;;;;11.90;8.10;;;;;;;14.69;36.72;99189.32;107254;1308;22473;-44
2023/03/19 10:37:14;;;;;;;11.90;7.50;;;;;;;14.77;36.90;99187.83;107831;1307;22395;-43
2023/03/19 10:39:42;;;;;;;13.10;7.60;;;;;;;14.89;37.00;99184.98;107920;1307;22248;-43
2023/03/19 10:42:16;;;;;;;14.30;7.20;;;;;;;14.98;36.22;99182.73;108018;1307;22281;-43
2023/03/19 10:44:50;;;;;;;9.80;7.60;;;;;;;15.03;36.35;99179.21;108015;1299;23140;-43
2023/03/19 10:47:18;;;;;;;12.50;7.80;;;;;;;15.07;36.10;99177.33;108030;1298;22223;-43
2023/03/19 10:49:43;;;;;;;;;;;;;;;15.11;35.90;99177.36;108040;1306;23654;-45
2023/03/19 10:52:35;;;;;;;16.50;7.60;;;;;;;15.18;35.93;99175.03;108049;1307;22400;-43
2023/03/19 10:55:13;;;;;;;10.80;7.40;;;;;;;15.20;35.88;99174.01;107999;1306;22858;-45
2023/03/19 10:57:42;;;;;;;15.70;8.10;;;;;;;15.25;35.64;99167.59;108034;1306;22448;-43
2023/03/19 11:00:19;;;;;;;12.60;7.40;;;;;;;15.30;35.72;99164.77;108002;1306;22312;-44
2023/03/19 11:02:52;;;;;;;12.80;7.60;;;;;;;15.33;35.95;99158.84;108009;1306;22277;-43
2023/03/19 11:05:25;;;;;;;16.60;8.10;;;;;;;15.43;35.95;99153.36;108035;1306;23047;-44
2023/03/19 11:08:18;;;;;;;15.20;7.70;;;;;;;15.62;35.83;99149.73;108055;1306;22459;-44
2023/03/19 11:10:47;;;;;;;13.90;7.00;;;;;;;16.01;35.43;99148.95;107995;1307;22248;-45
2023/03/19 11:13:26;;;;;;;10.70;7.10;;;;;;;16.18;34.42;99154.20;107944;1307;22441;-44
2023/03/19 11:15:53;;;;;;;10.50;6.80;;;;;;;16.25;34.70;99149.94;107951;1307;22227;-45
2023/03/19 11:18:18;;;;;;;;;;;;;;;16.38;34.60;99149.39;107959;1307;22449;-44
2023/03/19 11:20:55;;;;;;;13.30;7.70;;;;;;;16.74;34.24;99146.43;107929;1298;22356;-46